sensor_id;sensor_type;location;lat;lon;timestamp;P1;durP1;ratioP1;P2;durP2;ratioP2
69008;SDS011;56065;52.472;13.380;2023-05-07T00:00:58;19.23;;;10.60;;
69008;SDS011;56065;52.472;13.380;2023-05-07T00:03:24;20.47;;;10.70;;
69008;SDS011;56065;52.472;13.380;2023-05-07T00:05:51;22.05;;;10.70;;
69008;SDS011;56065;52.472;13.380;2023-05-07T00:08:17;18.05;;;10.23;;
69008;SDS011;56065;52.472;13.380;2023-05-07T00:10:43;26.20;;;13.20;;
69008;SDS011;56065;52.472;13.380;2023-05-07T00:13:09;44.97;;;21.05;;
69008;SDS011;56065;52.472;13.380;2023-05-07T00:15:34;56.90;;;27.87;;
69008;SDS011;56065;52.472;13.380;2023-05-07T00:18:00;22.92;;;12.25;;
69008;SDS011;56065;52.472;13.380;2023-05-07T00:20:25;16.70;;;9.03;;
69008;SDS011;56065;52.472;13.380;2023-05-07T00:22:51;15.37;;;8.87;;
69008;SDS011;56065;52.472;13.380;2023-05-07T00:25:18;14.60;;;8.73;;
69008;SDS011;56065;52.472;13.380;2023-05-07T00:27:44;17.90;;;8.05;;
69008;SDS011;56065;52.472;13.380;2023-05-07T00:30:10;14.73;;;8.13;;
69008;SDS011;56065;52.472;13.380;2023-05-07T00:32:36;15.80;;;8.20;;
69008;SDS011;56065;52.472;13.380;2023-05-07T00:35:02;15.52;;;8.98;;
69008;SDS011;56065;52.472;13.380;2023-05-07T00:37:28;16.83;;;8.68;;
69008;SDS011;56065;52.472;13.380;2023-05-07T00:39:55;14.13;;;7.10;;
69008;SDS011;56065;52.472;13.380;2023-05-07T00:42:20;14.73;;;7.53;;
69008;SDS011;56065;52.472;13.380;2023-05-07T00:44:46;13.70;;;7.83;;
69008;SDS011;56065;52.472;13.380;2023-05-07T00:47:11;12.67;;;7.43;;
69008;SDS011;56065;52.472;13.380;2023-05-07T00:49:38;13.02;;;7.82;;
69008;SDS011;56065;52.472;13.380;2023-05-07T00:52:06;13.75;;;7.47;;
69008;SDS011;56065;52.472;13.380;2023-05-07T00:54:33;15.00;;;8.13;;
69008;SDS011;56065;52.472;13.380;2023-05-07T00:56:59;12.52;;;7.22;;
69008;SDS011;56065;52.472;13.380;2023-05-07T00:59:25;13.57;;;8.13;;
69008;SDS011;56065;52.472;13.380;2023-05-07T01:01:51;14.98;;;7.85;;
69008;SDS011;56065;52.472;13.380;2023-05-07T01:04:17;15.70;;;8.45;;
69008;SDS011;56065;52.472;13.380;2023-05-07T01:06:42;13.67;;;7.23;;
69008;SDS011;56065;52.472;13.380;2023-05-07T01:09:10;16.77;;;8.63;;
69008;SDS011;56065;52.472;13.380;2023-05-07T01:11:37;17.33;;;8.60;;
69008;SDS011;56065;52.472;13.380;2023-05-07T01:14:02;14.73;;;8.65;;
69008;SDS011;56065;52.472;13.380;2023-05-07T01:16:28;17.03;;;9.03;;
69008;SDS011;56065;52.472;13.380;2023-05-07T01:18:53;14.77;;;8.40;;
69008;SDS011;56065;52.472;13.380;2023-05-07T01:21:19;13.60;;;8.13;;
69008;SDS011;56065;52.472;13.380;2023-05-07T01:23:51;13.10;;;7.82;;
69008;SDS011;56065;52.472;13.380;2023-05-07T01:26:17;14.23;;;8.37;;
69008;SDS011;56065;52.472;13.380;2023-05-07T01:28:45;16.23;;;8.35;;
69008;SDS011;56065;52.472;13.380;2023-05-07T01:31:10;14.32;;;8.13;;
69008;SDS011;56065;52.472;13.380;2023-05-07T01:33:38;15.35;;;7.80;;
69008;SDS011;56065;52.472;13.380;2023-05-07T01:36:07;21.23;;;9.27;;
69008;SDS011;56065;52.472;13.380;2023-05-07T01:38:36;14.20;;;7.95;;
69008;SDS011;56065;52.472;13.380;2023-05-07T01:41:03;12.73;;;7.75;;
69008;SDS011;56065;52.472;13.380;2023-05-07T01:43:29;14.77;;;7.90;;
69008;SDS011;56065;52.472;13.380;2023-05-07T01:45:55;12.52;;;7.88;;
69008;SDS011;56065;52.472;13.380;2023-05-07T01:48:22;13.27;;;8.00;;
69008;SDS011;56065;52.472;13.380;2023-05-07T01:50:49;14.35;;;8.10;;
69008;SDS011;56065;52.472;13.380;2023-05-07T01:53:17;15.15;;;7.97;;
69008;SDS011;56065;52.472;13.380;2023-05-07T01:55:42;14.93;;;8.13;;
69008;SDS011;56065;52.472;13.380;2023-05-07T01:58:08;14.52;;;8.10;;
69008;SDS011;56065;52.472;13.380;2023-05-07T02:00:33;13.03;;;7.80;;
69008;SDS011;56065;52.472;13.380;2023-05-07T02:02:59;12.17;;;7.17;;
69008;SDS011;56065;52.472;13.380;2023-05-07T02:05:24;13.03;;;7.33;;
69008;SDS011;56065;52.472;13.380;2023-05-07T02:07:51;13.98;;;7.00;;
69008;SDS011;56065;52.472;13.380;2023-05-07T02:10:16;13.93;;;7.77;;
69008;SDS011;56065;52.472;13.380;2023-05-07T02:12:42;13.85;;;7.78;;
69008;SDS011;56065;52.472;13.380;2023-05-07T02:15:10;12.33;;;6.73;;
69008;SDS011;56065;52.472;13.380;2023-05-07T02:17:39;16.05;;;7.60;;
69008;SDS011;56065;52.472;13.380;2023-05-07T02:20:22;15.52;;;7.80;;
69008;SDS011;56065;52.472;13.380;2023-05-07T02:22:47;14.43;;;7.93;;
69008;SDS011;56065;52.472;13.380;2023-05-07T02:25:13;13.80;;;7.33;;
69008;SDS011;56065;52.472;13.380;2023-05-07T02:27:38;14.47;;;7.60;;
69008;SDS011;56065;52.472;13.380;2023-05-07T02:30:03;14.43;;;7.60;;
69008;SDS011;56065;52.472;13.380;2023-05-07T02:32:33;15.75;;;8.13;;
69008;SDS011;56065;52.472;13.380;2023-05-07T02:34:58;13.30;;;8.05;;
69008;SDS011;56065;52.472;13.380;2023-05-07T02:37:24;16.73;;;8.70;;
69008;SDS011;56065;52.472;13.380;2023-05-07T02:39:49;16.10;;;7.70;;
69008;SDS011;56065;52.472;13.380;2023-05-07T02:42:15;13.27;;;8.07;;
69008;SDS011;56065;52.472;13.380;2023-05-07T02:44:40;14.83;;;7.80;;
69008;SDS011;56065;52.472;13.380;2023-05-07T02:47:05;16.23;;;8.13;;
69008;SDS011;56065;52.472;13.380;2023-05-07T02:49:33;16.08;;;8.43;;
69008;SDS011;56065;52.472;13.380;2023-05-07T02:51:59;15.33;;;8.40;;
69008;SDS011;56065;52.472;13.380;2023-05-07T02:54:24;16.80;;;7.60;;
69008;SDS011;56065;52.472;13.380;2023-05-07T02:56:50;13.33;;;7.97;;
69008;SDS011;56065;52.472;13.380;2023-05-07T02:59:15;13.50;;;8.07;;
69008;SDS011;56065;52.472;13.380;2023-05-07T03:01:40;17.90;;;8.20;;
69008;SDS011;56065;52.472;13.380;2023-05-07T03:04:08;12.93;;;7.20;;
69008;SDS011;56065;52.472;13.380;2023-05-07T03:06:34;15.38;;;8.40;;
69008;SDS011;56065;52.472;13.380;2023-05-07T03:09:00;14.13;;;7.63;;
69008;SDS011;56065;52.472;13.380;2023-05-07T03:11:25;13.67;;;7.47;;
69008;SDS011;56065;52.472;13.380;2023-05-07T03:13:50;15.02;;;7.60;;
69008;SDS011;56065;52.472;13.380;2023-05-07T03:16:16;15.30;;;8.27;;
69008;SDS011;56065;52.472;13.380;2023-05-07T03:18:41;15.57;;;7.87;;
69008;SDS011;56065;52.472;13.380;2023-05-07T03:21:06;13.20;;;7.53;;
69008;SDS011;56065;52.472;13.380;2023-05-07T03:23:32;11.50;;;6.93;;
69008;SDS011;56065;52.472;13.380;2023-05-07T03:25:57;12.03;;;7.03;;
69008;SDS011;56065;52.472;13.380;2023-05-07T03:28:22;14.10;;;7.40;;
69008;SDS011;56065;52.472;13.380;2023-05-07T03:30:48;14.48;;;7.22;;
69008;SDS011;56065;52.472;13.380;2023-05-07T03:33:13;12.37;;;7.27;;
69008;SDS011;56065;52.472;13.380;2023-05-07T03:35:39;12.77;;;7.50;;
69008;SDS011;56065;52.472;13.380;2023-05-07T03:38:04;11.50;;;6.80;;
69008;SDS011;56065;52.472;13.380;2023-05-07T03:40:30;17.70;;;7.60;;
69008;SDS011;56065;52.472;13.380;2023-05-07T03:42:55;14.00;;;7.07;;
69008;SDS011;56065;52.472;13.380;2023-05-07T03:45:20;12.93;;;7.40;;
69008;SDS011;56065;52.472;13.380;2023-05-07T03:47:46;15.60;;;8.30;;
69008;SDS011;56065;52.472;13.380;2023-05-07T03:50:11;12.70;;;7.37;;
69008;SDS011;56065;52.472;13.380;2023-05-07T03:52:37;15.93;;;7.50;;
69008;SDS011;56065;52.472;13.380;2023-05-07T03:55:02;12.50;;;7.13;;
69008;SDS011;56065;52.472;13.380;2023-05-07T03:57:27;15.13;;;7.40;;
69008;SDS011;56065;52.472;13.380;2023-05-07T03:59:53;15.47;;;7.23;;
69008;SDS011;56065;52.472;13.380;2023-05-07T04:02:18;13.10;;;7.23;;
69008;SDS011;56065;52.472;13.380;2023-05-07T04:04:43;14.25;;;8.00;;
69008;SDS011;56065;52.472;13.380;2023-05-07T04:07:09;13.90;;;7.67;;
69008;SDS011;56065;52.472;13.380;2023-05-07T04:09:34;12.40;;;7.17;;
69008;SDS011;56065;52.472;13.380;2023-05-07T04:12:00;18.17;;;8.10;;
69008;SDS011;56065;52.472;13.380;2023-05-07T04:14:26;12.95;;;7.30;;
69008;SDS011;56065;52.472;13.380;2023-05-07T04:16:52;11.27;;;6.97;;
69008;SDS011;56065;52.472;13.380;2023-05-07T04:19:17;13.00;;;7.03;;
69008;SDS011;56065;52.472;13.380;2023-05-07T04:21:42;13.30;;;6.93;;
69008;SDS011;56065;52.472;13.380;2023-05-07T04:24:08;13.43;;;7.10;;
69008;SDS011;56065;52.472;13.380;2023-05-07T04:26:33;12.40;;;6.90;;
69008;SDS011;56065;52.472;13.380;2023-05-07T04:28:59;11.83;;;6.57;;
69008;SDS011;56065;52.472;13.380;2023-05-07T04:31:24;12.02;;;6.32;;
69008;SDS011;56065;52.472;13.380;2023-05-07T04:33:50;11.00;;;6.28;;
69008;SDS011;56065;52.472;13.380;2023-05-07T04:36:16;12.67;;;6.90;;
69008;SDS011;56065;52.472;13.380;2023-05-07T04:38:41;12.55;;;6.80;;
69008;SDS011;56065;52.472;13.380;2023-05-07T04:41:08;10.80;;;6.10;;
69008;SDS011;56065;52.472;13.380;2023-05-07T04:43:34;13.93;;;6.88;;
69008;SDS011;56065;52.472;13.380;2023-05-07T04:46:00;13.27;;;6.87;;
69008;SDS011;56065;52.472;13.380;2023-05-07T04:48:25;12.77;;;6.40;;
69008;SDS011;56065;52.472;13.380;2023-05-07T04:50:51;11.57;;;6.00;;
69008;SDS011;56065;52.472;13.380;2023-05-07T04:53:17;13.73;;;6.22;;
69008;SDS011;56065;52.472;13.380;2023-05-07T04:55:43;13.13;;;6.90;;
69008;SDS011;56065;52.472;13.380;2023-05-07T04:58:10;12.13;;;5.90;;
69008;SDS011;56065;52.472;13.380;2023-05-07T05:00:36;11.00;;;5.68;;
69008;SDS011;56065;52.472;13.380;2023-05-07T05:03:01;10.83;;;6.20;;
69008;SDS011;56065;52.472;13.380;2023-05-07T05:05:26;11.02;;;6.13;;
69008;SDS011;56065;52.472;13.380;2023-05-07T05:07:52;12.53;;;5.27;;
69008;SDS011;56065;52.472;13.380;2023-05-07T05:10:17;11.40;;;5.73;;
69008;SDS011;56065;52.472;13.380;2023-05-07T05:12:43;11.10;;;5.13;;
69008;SDS011;56065;52.472;13.380;2023-05-07T05:15:10;11.37;;;5.10;;
69008;SDS011;56065;52.472;13.380;2023-05-07T05:17:37;9.43;;;5.03;;
69008;SDS011;56065;52.472;13.380;2023-05-07T05:20:03;10.15;;;5.10;;
69008;SDS011;56065;52.472;13.380;2023-05-07T05:22:29;10.63;;;5.23;;
69008;SDS011;56065;52.472;13.380;2023-05-07T05:24:56;9.68;;;5.15;;
69008;SDS011;56065;52.472;13.380;2023-05-07T05:27:21;10.27;;;5.00;;
69008;SDS011;56065;52.472;13.380;2023-05-07T05:29:46;9.48;;;4.90;;
69008;SDS011;56065;52.472;13.380;2023-05-07T05:32:12;11.93;;;5.00;;
69008;SDS011;56065;52.472;13.380;2023-05-07T05:34:37;10.90;;;4.90;;
69008;SDS011;56065;52.472;13.380;2023-05-07T05:37:02;11.53;;;5.47;;
69008;SDS011;56065;52.472;13.380;2023-05-07T05:39:28;9.87;;;4.83;;
69008;SDS011;56065;52.472;13.380;2023-05-07T05:41:53;10.30;;;5.00;;
69008;SDS011;56065;52.472;13.380;2023-05-07T05:44:18;10.07;;;5.37;;
69008;SDS011;56065;52.472;13.380;2023-05-07T05:46:44;9.77;;;5.53;;
69008;SDS011;56065;52.472;13.380;2023-05-07T05:49:10;10.83;;;5.47;;
69008;SDS011;56065;52.472;13.380;2023-05-07T05:51:35;10.13;;;5.20;;
69008;SDS011;56065;52.472;13.380;2023-05-07T05:54:00;10.77;;;5.93;;
69008;SDS011;56065;52.472;13.380;2023-05-07T05:56:26;10.95;;;5.35;;
69008;SDS011;56065;52.472;13.380;2023-05-07T05:58:51;12.33;;;5.23;;
69008;SDS011;56065;52.472;13.380;2023-05-07T06:01:17;9.53;;;5.20;;
69008;SDS011;56065;52.472;13.380;2023-05-07T06:03:43;9.20;;;5.32;;
69008;SDS011;56065;52.472;13.380;2023-05-07T06:06:08;9.87;;;5.03;;
69008;SDS011;56065;52.472;13.380;2023-05-07T06:08:34;10.23;;;4.93;;
69008;SDS011;56065;52.472;13.380;2023-05-07T06:10:59;11.97;;;5.40;;
69008;SDS011;56065;52.472;13.380;2023-05-07T06:13:26;9.60;;;6.07;;
69008;SDS011;56065;52.472;13.380;2023-05-07T06:15:51;9.37;;;4.70;;
69008;SDS011;56065;52.472;13.380;2023-05-07T06:18:17;10.40;;;5.53;;
69008;SDS011;56065;52.472;13.380;2023-05-07T06:20:42;11.05;;;4.90;;
69008;SDS011;56065;52.472;13.380;2023-05-07T06:23:07;10.33;;;5.07;;
69008;SDS011;56065;52.472;13.380;2023-05-07T06:25:33;10.63;;;4.83;;
69008;SDS011;56065;52.472;13.380;2023-05-07T06:27:58;10.63;;;4.83;;
69008;SDS011;56065;52.472;13.380;2023-05-07T06:30:23;11.50;;;5.63;;
69008;SDS011;56065;52.472;13.380;2023-05-07T06:32:49;9.97;;;5.00;;
69008;SDS011;56065;52.472;13.380;2023-05-07T06:35:14;9.10;;;5.40;;
69008;SDS011;56065;52.472;13.380;2023-05-07T06:37:40;9.00;;;5.05;;
69008;SDS011;56065;52.472;13.380;2023-05-07T06:40:07;9.60;;;4.70;;
69008;SDS011;56065;52.472;13.380;2023-05-07T06:42:33;9.30;;;4.80;;
69008;SDS011;56065;52.472;13.380;2023-05-07T06:44:58;10.05;;;5.18;;
69008;SDS011;56065;52.472;13.380;2023-05-07T06:47:24;10.70;;;5.13;;
69008;SDS011;56065;52.472;13.380;2023-05-07T06:49:50;8.80;;;4.80;;
69008;SDS011;56065;52.472;13.380;2023-05-07T06:52:15;9.60;;;5.10;;
69008;SDS011;56065;52.472;13.380;2023-05-07T06:54:40;10.53;;;5.33;;
69008;SDS011;56065;52.472;13.380;2023-05-07T06:57:06;9.27;;;5.27;;
69008;SDS011;56065;52.472;13.380;2023-05-07T06:59:32;9.07;;;4.97;;
69008;SDS011;56065;52.472;13.380;2023-05-07T07:01:57;10.17;;;4.73;;
69008;SDS011;56065;52.472;13.380;2023-05-07T07:04:22;8.77;;;4.77;;
69008;SDS011;56065;52.472;13.380;2023-05-07T07:06:49;9.25;;;4.72;;
69008;SDS011;56065;52.472;13.380;2023-05-07T07:09:14;9.73;;;4.50;;
69008;SDS011;56065;52.472;13.380;2023-05-07T07:11:40;8.77;;;4.20;;
69008;SDS011;56065;52.472;13.380;2023-05-07T07:14:05;10.43;;;4.27;;
69008;SDS011;56065;52.472;13.380;2023-05-07T07:16:30;9.80;;;4.75;;
69008;SDS011;56065;52.472;13.380;2023-05-07T07:18:56;10.30;;;4.60;;
69008;SDS011;56065;52.472;13.380;2023-05-07T07:21:21;9.93;;;4.73;;
69008;SDS011;56065;52.472;13.380;2023-05-07T07:23:46;8.63;;;4.20;;
69008;SDS011;56065;52.472;13.380;2023-05-07T07:26:12;8.17;;;3.90;;
69008;SDS011;56065;52.472;13.380;2023-05-07T07:28:43;8.50;;;4.00;;
69008;SDS011;56065;52.472;13.380;2023-05-07T07:31:09;7.13;;;3.60;;
69008;SDS011;56065;52.472;13.380;2023-05-07T07:33:35;7.63;;;3.20;;
69008;SDS011;56065;52.472;13.380;2023-05-07T07:36:00;7.32;;;3.90;;
69008;SDS011;56065;52.472;13.380;2023-05-07T07:38:25;7.07;;;3.63;;
69008;SDS011;56065;52.472;13.380;2023-05-07T07:40:51;8.97;;;4.13;;
69008;SDS011;56065;52.472;13.380;2023-05-07T07:43:16;6.53;;;3.50;;
69008;SDS011;56065;52.472;13.380;2023-05-07T07:45:41;7.63;;;3.47;;
69008;SDS011;56065;52.472;13.380;2023-05-07T07:48:07;7.37;;;3.20;;
69008;SDS011;56065;52.472;13.380;2023-05-07T07:50:32;6.68;;;3.55;;
69008;SDS011;56065;52.472;13.380;2023-05-07T07:52:58;7.90;;;3.60;;
69008;SDS011;56065;52.472;13.380;2023-05-07T07:55:23;8.17;;;3.23;;
69008;SDS011;56065;52.472;13.380;2023-05-07T07:57:49;8.20;;;4.13;;
69008;SDS011;56065;52.472;13.380;2023-05-07T08:00:15;7.30;;;3.10;;
69008;SDS011;56065;52.472;13.380;2023-05-07T08:02:41;7.03;;;3.08;;
69008;SDS011;56065;52.472;13.380;2023-05-07T08:05:06;6.97;;;4.17;;
69008;SDS011;56065;52.472;13.380;2023-05-07T08:07:32;7.72;;;3.70;;
69008;SDS011;56065;52.472;13.380;2023-05-07T08:09:58;6.17;;;3.57;;
69008;SDS011;56065;52.472;13.380;2023-05-07T08:12:23;6.53;;;3.63;;
69008;SDS011;56065;52.472;13.380;2023-05-07T08:14:48;7.63;;;3.60;;
69008;SDS011;56065;52.472;13.380;2023-05-07T08:17:14;6.50;;;3.40;;
69008;SDS011;56065;52.472;13.380;2023-05-07T08:19:40;7.03;;;3.20;;
69008;SDS011;56065;52.472;13.380;2023-05-07T08:22:06;6.53;;;3.53;;
69008;SDS011;56065;52.472;13.380;2023-05-07T08:24:31;6.20;;;2.80;;
69008;SDS011;56065;52.472;13.380;2023-05-07T08:26:57;7.50;;;3.07;;
69008;SDS011;56065;52.472;13.380;2023-05-07T08:29:22;5.53;;;2.60;;
69008;SDS011;56065;52.472;13.380;2023-05-07T08:31:47;6.03;;;2.73;;
69008;SDS011;56065;52.472;13.380;2023-05-07T08:34:13;6.43;;;2.47;;
69008;SDS011;56065;52.472;13.380;2023-05-07T08:36:38;7.00;;;2.77;;
69008;SDS011;56065;52.472;13.380;2023-05-07T08:39:04;5.80;;;2.70;;
69008;SDS011;56065;52.472;13.380;2023-05-07T08:41:29;6.73;;;3.17;;
69008;SDS011;56065;52.472;13.380;2023-05-07T08:43:55;6.68;;;2.85;;
69008;SDS011;56065;52.472;13.380;2023-05-07T08:46:23;6.80;;;3.05;;
69008;SDS011;56065;52.472;13.380;2023-05-07T08:48:51;4.97;;;2.07;;
69008;SDS011;56065;52.472;13.380;2023-05-07T08:51:17;5.28;;;2.22;;
69008;SDS011;56065;52.472;13.380;2023-05-07T08:53:45;6.15;;;2.67;;
69008;SDS011;56065;52.472;13.380;2023-05-07T08:56:13;7.53;;;2.92;;
69008;SDS011;56065;52.472;13.380;2023-05-07T08:58:40;5.47;;;2.70;;
69008;SDS011;56065;52.472;13.380;2023-05-07T09:01:07;7.80;;;3.40;;
69008;SDS011;56065;52.472;13.380;2023-05-07T09:03:36;5.82;;;2.55;;
69008;SDS011;56065;52.472;13.380;2023-05-07T09:06:03;6.22;;;2.20;;
69008;SDS011;56065;52.472;13.380;2023-05-07T09:08:29;5.20;;;2.27;;
69008;SDS011;56065;52.472;13.380;2023-05-07T09:10:54;7.32;;;2.90;;
69008;SDS011;56065;52.472;13.380;2023-05-07T09:13:20;6.20;;;2.43;;
69008;SDS011;56065;52.472;13.380;2023-05-07T09:15:45;5.00;;;2.13;;
69008;SDS011;56065;52.472;13.380;2023-05-07T09:18:12;5.50;;;2.20;;
69008;SDS011;56065;52.472;13.380;2023-05-07T09:20:37;6.53;;;2.92;;
69008;SDS011;56065;52.472;13.380;2023-05-07T09:23:03;6.63;;;2.53;;
69008;SDS011;56065;52.472;13.380;2023-05-07T09:25:29;5.07;;;2.00;;
69008;SDS011;56065;52.472;13.380;2023-05-07T09:27:56;5.40;;;2.40;;
69008;SDS011;56065;52.472;13.380;2023-05-07T09:30:21;7.68;;;2.50;;
69008;SDS011;56065;52.472;13.380;2023-05-07T09:32:46;5.60;;;2.93;;
69008;SDS011;56065;52.472;13.380;2023-05-07T09:35:15;6.67;;;2.50;;
69008;SDS011;56065;52.472;13.380;2023-05-07T09:37:46;5.97;;;2.10;;
69008;SDS011;56065;52.472;13.380;2023-05-07T09:40:25;5.30;;;2.10;;
69008;SDS011;56065;52.472;13.380;2023-05-07T09:42:52;5.97;;;2.10;;
69008;SDS011;56065;52.472;13.380;2023-05-07T09:45:36;5.47;;;2.40;;
69008;SDS011;56065;52.472;13.380;2023-05-07T09:48:02;7.15;;;2.40;;
69008;SDS011;56065;52.472;13.380;2023-05-07T09:50:36;8.23;;;2.53;;
69008;SDS011;56065;52.472;13.380;2023-05-07T09:53:12;6.78;;;2.40;;
69008;SDS011;56065;52.472;13.380;2023-05-07T09:55:39;5.80;;;2.67;;
69008;SDS011;56065;52.472;13.380;2023-05-07T09:58:04;6.90;;;2.10;;
69008;SDS011;56065;52.472;13.380;2023-05-07T10:00:31;6.40;;;2.55;;
69008;SDS011;56065;52.472;13.380;2023-05-07T10:02:57;14.90;;;7.35;;
69008;SDS011;56065;52.472;13.380;2023-05-07T10:05:23;7.63;;;3.40;;
69008;SDS011;56065;52.472;13.380;2023-05-07T10:07:50;6.68;;;2.33;;
69008;SDS011;56065;52.472;13.380;2023-05-07T10:10:15;5.07;;;1.90;;
69008;SDS011;56065;52.472;13.380;2023-05-07T10:12:42;5.60;;;2.00;;
69008;SDS011;56065;52.472;13.380;2023-05-07T10:15:08;5.07;;;2.20;;
69008;SDS011;56065;52.472;13.380;2023-05-07T10:17:35;5.70;;;2.72;;
69008;SDS011;56065;52.472;13.380;2023-05-07T10:20:02;4.40;;;2.17;;
69008;SDS011;56065;52.472;13.380;2023-05-07T10:22:30;5.55;;;1.48;;
69008;SDS011;56065;52.472;13.380;2023-05-07T10:25:02;6.60;;;2.30;;
69008;SDS011;56065;52.472;13.380;2023-05-07T10:27:28;6.57;;;1.67;;
69008;SDS011;56065;52.472;13.380;2023-05-07T10:30:16;5.53;;;2.33;;
69008;SDS011;56065;52.472;13.380;2023-05-07T10:33:03;4.90;;;1.70;;
69008;SDS011;56065;52.472;13.380;2023-05-07T10:35:37;6.53;;;2.28;;
69008;SDS011;56065;52.472;13.380;2023-05-07T10:38:05;5.22;;;1.77;;
69008;SDS011;56065;52.472;13.380;2023-05-07T10:40:31;7.37;;;2.77;;
69008;SDS011;56065;52.472;13.380;2023-05-07T10:42:57;6.30;;;2.05;;
69008;SDS011;56065;52.472;13.380;2023-05-07T10:45:27;7.43;;;2.00;;
69008;SDS011;56065;52.472;13.380;2023-05-07T10:48:09;5.75;;;2.00;;
69008;SDS011;56065;52.472;13.380;2023-05-07T10:50:40;6.28;;;2.30;;
69008;SDS011;56065;52.472;13.380;2023-05-07T10:55:46;4.68;;;1.77;;
69008;SDS011;56065;52.472;13.380;2023-05-07T11:00:46;4.50;;;1.52;;
69008;SDS011;56065;52.472;13.380;2023-05-07T11:03:13;16.92;;;7.57;;
69008;SDS011;56065;52.472;13.380;2023-05-07T11:05:40;4.80;;;1.67;;
69008;SDS011;56065;52.472;13.380;2023-05-07T11:08:06;4.93;;;1.65;;
69008;SDS011;56065;52.472;13.380;2023-05-07T11:10:53;5.30;;;2.00;;
69008;SDS011;56065;52.472;13.380;2023-05-07T11:13:40;5.95;;;2.40;;
69008;SDS011;56065;52.472;13.380;2023-05-07T11:19:02;10.68;;;4.80;;
69008;SDS011;56065;52.472;13.380;2023-05-07T11:21:32;6.90;;;2.73;;
69008;SDS011;56065;52.472;13.380;2023-05-07T11:23:58;10.18;;;4.53;;
69008;SDS011;56065;52.472;13.380;2023-05-07T11:26:25;21.83;;;11.38;;
69008;SDS011;56065;52.472;13.380;2023-05-07T11:28:51;5.68;;;2.42;;
69008;SDS011;56065;52.472;13.380;2023-05-07T11:31:22;8.87;;;2.80;;
69008;SDS011;56065;52.472;13.380;2023-05-07T11:33:52;4.63;;;2.25;;
69008;SDS011;56065;52.472;13.380;2023-05-07T11:36:18;4.07;;;1.40;;
69008;SDS011;56065;52.472;13.380;2023-05-07T11:38:45;4.75;;;1.70;;
69008;SDS011;56065;52.472;13.380;2023-05-07T11:41:10;4.67;;;1.70;;
69008;SDS011;56065;52.472;13.380;2023-05-07T11:43:36;6.03;;;2.77;;
69008;SDS011;56065;52.472;13.380;2023-05-07T11:46:05;5.77;;;2.00;;
69008;SDS011;56065;52.472;13.380;2023-05-07T11:48:32;5.47;;;1.98;;
69008;SDS011;56065;52.472;13.380;2023-05-07T11:53:26;4.73;;;2.00;;
69008;SDS011;56065;52.472;13.380;2023-05-07T11:55:54;6.30;;;1.50;;
69008;SDS011;56065;52.472;13.380;2023-05-07T11:58:21;7.53;;;3.03;;
69008;SDS011;56065;52.472;13.380;2023-05-07T12:00:48;5.45;;;1.85;;
69008;SDS011;56065;52.472;13.380;2023-05-07T12:03:14;5.82;;;1.95;;
69008;SDS011;56065;52.472;13.380;2023-05-07T12:05:40;4.40;;;1.63;;
69008;SDS011;56065;52.472;13.380;2023-05-07T12:08:06;4.78;;;1.58;;
69008;SDS011;56065;52.472;13.380;2023-05-07T12:10:32;4.68;;;1.95;;
69008;SDS011;56065;52.472;13.380;2023-05-07T12:12:57;3.90;;;1.50;;
69008;SDS011;56065;52.472;13.380;2023-05-07T12:15:23;4.57;;;1.60;;
69008;SDS011;56065;52.472;13.380;2023-05-07T12:17:48;4.63;;;1.40;;
69008;SDS011;56065;52.472;13.380;2023-05-07T12:20:14;4.90;;;1.50;;
69008;SDS011;56065;52.472;13.380;2023-05-07T12:22:40;4.93;;;1.47;;
69008;SDS011;56065;52.472;13.380;2023-05-07T12:25:06;3.78;;;1.30;;
69008;SDS011;56065;52.472;13.380;2023-05-07T12:27:31;5.23;;;1.47;;
69008;SDS011;56065;52.472;13.380;2023-05-07T12:29:57;3.00;;;1.13;;
69008;SDS011;56065;52.472;13.380;2023-05-07T12:32:23;5.10;;;1.20;;
69008;SDS011;56065;52.472;13.380;2023-05-07T12:34:49;4.63;;;1.60;;
69008;SDS011;56065;52.472;13.380;2023-05-07T12:37:15;6.20;;;1.67;;
69008;SDS011;56065;52.472;13.380;2023-05-07T12:39:47;4.22;;;1.40;;
69008;SDS011;56065;52.472;13.380;2023-05-07T12:42:19;4.60;;;1.20;;
69008;SDS011;56065;52.472;13.380;2023-05-07T12:44:50;4.80;;;1.65;;
69008;SDS011;56065;52.472;13.380;2023-05-07T12:47:16;4.80;;;1.40;;
69008;SDS011;56065;52.472;13.380;2023-05-07T12:49:42;4.37;;;1.70;;
69008;SDS011;56065;52.472;13.380;2023-05-07T12:52:10;4.38;;;1.33;;
69008;SDS011;56065;52.472;13.380;2023-05-07T12:54:37;4.38;;;1.55;;
69008;SDS011;56065;52.472;13.380;2023-05-07T12:57:09;4.13;;;1.40;;
69008;SDS011;56065;52.472;13.380;2023-05-07T12:59:39;4.97;;;1.85;;
69008;SDS011;56065;52.472;13.380;2023-05-07T13:02:05;5.77;;;1.53;;
69008;SDS011;56065;52.472;13.380;2023-05-07T13:04:31;4.82;;;1.30;;
69008;SDS011;56065;52.472;13.380;2023-05-07T13:06:58;5.63;;;1.88;;
69008;SDS011;56065;52.472;13.380;2023-05-07T13:09:24;5.78;;;2.10;;
69008;SDS011;56065;52.472;13.380;2023-05-07T13:11:49;5.73;;;2.00;;
69008;SDS011;56065;52.472;13.380;2023-05-07T13:14:14;4.37;;;1.60;;
69008;SDS011;56065;52.472;13.380;2023-05-07T13:16:40;6.55;;;1.92;;
69008;SDS011;56065;52.472;13.380;2023-05-07T13:19:05;7.00;;;1.87;;
69008;SDS011;56065;52.472;13.380;2023-05-07T13:21:31;4.87;;;1.70;;
69008;SDS011;56065;52.472;13.380;2023-05-07T13:23:59;3.75;;;1.20;;
69008;SDS011;56065;52.472;13.380;2023-05-07T13:26:24;4.43;;;1.20;;
69008;SDS011;56065;52.472;13.380;2023-05-07T13:28:50;4.57;;;1.05;;
69008;SDS011;56065;52.472;13.380;2023-05-07T13:31:16;5.63;;;1.60;;
69008;SDS011;56065;52.472;13.380;2023-05-07T13:33:42;5.05;;;1.75;;
69008;SDS011;56065;52.472;13.380;2023-05-07T13:36:08;3.77;;;1.30;;
69008;SDS011;56065;52.472;13.380;2023-05-07T13:38:33;4.70;;;1.67;;
69008;SDS011;56065;52.472;13.380;2023-05-07T13:40:58;4.50;;;1.40;;
69008;SDS011;56065;52.472;13.380;2023-05-07T13:43:24;3.77;;;1.20;;
69008;SDS011;56065;52.472;13.380;2023-05-07T13:45:49;4.53;;;1.50;;
69008;SDS011;56065;52.472;13.380;2023-05-07T13:48:15;4.10;;;1.50;;
69008;SDS011;56065;52.472;13.380;2023-05-07T13:50:40;6.30;;;1.70;;
69008;SDS011;56065;52.472;13.380;2023-05-07T13:53:07;3.83;;;1.30;;
69008;SDS011;56065;52.472;13.380;2023-05-07T13:55:33;4.73;;;1.37;;
69008;SDS011;56065;52.472;13.380;2023-05-07T13:57:59;5.47;;;1.70;;
69008;SDS011;56065;52.472;13.380;2023-05-07T14:00:25;4.10;;;1.10;;
69008;SDS011;56065;52.472;13.380;2023-05-07T14:02:52;6.03;;;1.47;;
69008;SDS011;56065;52.472;13.380;2023-05-07T14:05:17;3.58;;;1.05;;
69008;SDS011;56065;52.472;13.380;2023-05-07T14:07:43;5.32;;;2.20;;
69008;SDS011;56065;52.472;13.380;2023-05-07T14:10:08;5.07;;;1.43;;
69008;SDS011;56065;52.472;13.380;2023-05-07T14:12:36;3.83;;;1.38;;
69008;SDS011;56065;52.472;13.380;2023-05-07T14:15:01;4.70;;;1.70;;
69008;SDS011;56065;52.472;13.380;2023-05-07T14:17:27;6.00;;;1.30;;
69008;SDS011;56065;52.472;13.380;2023-05-07T14:19:52;4.80;;;1.33;;
69008;SDS011;56065;52.472;13.380;2023-05-07T14:22:19;6.30;;;1.47;;
69008;SDS011;56065;52.472;13.380;2023-05-07T14:24:45;5.30;;;2.03;;
69008;SDS011;56065;52.472;13.380;2023-05-07T14:27:11;4.53;;;1.40;;
69008;SDS011;56065;52.472;13.380;2023-05-07T14:29:36;3.17;;;1.23;;
69008;SDS011;56065;52.472;13.380;2023-05-07T14:32:02;3.37;;;1.10;;
69008;SDS011;56065;52.472;13.380;2023-05-07T14:34:28;4.85;;;1.55;;